Time;durP1;ratioP1;P1;durP2;ratioP2;P2;SDS_P1;SDS_P2;PMS_P1;PMS_P2;Temp;Humidity;BMP_temperature;BMP_pressure;BME280_temperature;BME280_humidity;BME280_pressure;Samples;Min_cycle;Max_cycle;Signal;HPM_P1;HPM_P2
2021/10/11 00:01:47;;;;;;;59.83;30.85;;;;;;;9.51;55.10;96178.59;4977856;28;20043;-74
2021/10/11 00:04:12;;;;;;;76.70;33.10;;;;;;;9.62;54.89;96187.31;4969075;28;20508;-73
2021/10/11 00:06:38;;;;;;;62.58;30.70;;;;;;;9.62;55.02;96180.19;4978661;28;20046;-73
2021/10/11 00:09:04;;;;;;;65.93;31.75;;;;;;;9.54;54.73;96182.59;5003732;28;20031;-73
2021/10/11 00:11:29;;;;;;;65.43;31.92;;;;;;;9.58;54.50;96178.34;4990712;28;20105;-73
2021/10/11 00:13:54;;;;;;;57.30;30.05;;;;;;;9.64;54.67;96185.22;4988650;28;20042;-72
2021/10/11 00:16:20;;;;;;;77.75;32.70;;;;;;;9.62;55.00;96163.41;4982594;28;20039;-73
2021/10/11 00:18:45;;;;;;;104.32;37.60;;;;;;;9.76;54.45;96174.25;4968884;28;20564;-72
2021/10/11 00:21:12;;;;;;;61.47;29.15;;;;;;;9.88;54.61;96177.41;4969135;28;20039;-73
2021/10/11 00:23:38;;;;;;;64.47;29.63;;;;;;;9.93;54.77;96181.88;4969315;28;20023;-73
2021/10/11 00:26:03;;;;;;;69.65;30.35;;;;;;;9.85;54.36;96176.06;4989292;28;20035;-73
2021/10/11 00:28:29;;;;;;;62.33;30.65;;;;;;;9.96;54.25;96178.69;5003695;28;20045;-73
2021/10/11 00:30:54;;;;;;;63.25;30.25;;;;;;;9.95;54.54;96156.63;5000922;28;20424;-73
2021/10/11 00:33:19;;;;;;;60.33;29.17;;;;;;;10.10;55.21;96163.72;4968644;28;20047;-73
2021/10/11 00:35:45;;;;;;;70.93;29.98;;;;;;;10.26;54.64;96173.22;4976967;28;20046;-73
2021/10/11 00:38:10;;;;;;;87.25;30.83;;;;;;;10.37;54.21;96161.44;4970965;28;20244;-72
2021/10/11 00:40:35;;;;;;;64.45;28.15;;;;;;;10.50;54.12;96167.22;4984917;28;20033;-73
2021/10/11 00:43:01;;;;;;;64.95;28.63;;;;;;;10.51;54.26;96148.31;4988122;28;20046;-73
2021/10/11 00:45:26;;;;;;;81.72;29.30;;;;;;;10.64;53.97;96152.97;4988501;28;20166;-75
2021/10/11 00:47:52;;;;;;;69.50;28.92;;;;;;;10.87;53.66;96174.63;4968356;28;20054;-73
2021/10/11 00:50:17;;;;;;;59.65;26.70;;;;;;;10.89;52.92;96159.16;4951083;28;20035;-73
2021/10/11 00:52:43;;;;;;;87.60;27.67;;;;;;;11.03;53.48;96161.94;4966715;28;20124;-73
2021/10/11 00:55:09;;;;;;;152.98;32.28;;;;;;;11.09;52.71;96158.16;4968884;28;20405;-73
2021/10/11 00:57:34;;;;;;;58.90;26.60;;;;;;;10.94;52.56;96133.28;4967516;28;20045;-73
2021/10/11 00:59:59;;;;;;;147.27;32.13;;;;;;;11.00;53.36;96151.84;4968717;28;20027;-72
2021/10/11 01:02:25;;;;;;;51.28;26.50;;;;;;;10.98;52.34;96143.38;4970019;28;20524;-73
2021/10/11 01:04:50;;;;;;;60.30;26.65;;;;;;;11.07;52.96;96147.81;4968548;28;20050;-73
2021/10/11 01:07:15;;;;;;;72.22;28.95;;;;;;;11.00;52.67;96125.22;4968888;28;20038;-72
2021/10/11 01:09:41;;;;;;;178.77;36.08;;;;;;;11.08;52.58;96136.06;4977360;28;20388;-73
2021/10/11 01:12:06;;;;;;;109.93;28.60;;;;;;;11.18;52.56;96157.25;4987994;28;20089;-72
2021/10/11 01:14:32;;;;;;;93.32;28.17;;;;;;;11.19;52.99;96147.41;4989902;28;20014;-73
2021/10/11 01:16:57;;;;;;;305.92;39.03;;;;;;;10.72;53.24;96143.59;4980622;28;20505;-74
2021/10/11 01:19:23;;;;;;;119.78;30.92;;;;;;;10.89;53.16;96148.50;4972131;28;20061;-73
2021/10/11 01:21:48;;;;;;;103.10;29.10;;;;;;;10.95;53.53;96136.72;4977215;28;20377;-73
2021/10/11 01:24:14;;;;;;;106.75;27.40;;;;;;;10.91;52.75;96136.50;5007083;28;20543;-73
2021/10/11 01:26:44;;;;;;;66.63;26.00;;;;;;;10.90;52.65;96145.56;4992317;28;20207;-73
2021/10/11 01:29:12;;;;;;;135.93;25.48;;;;;;;10.84;53.42;96152.00;4992198;28;20117;-73
2021/10/11 01:31:38;;;;;;;85.63;25.60;;;;;;;10.86;53.39;96159.72;4985992;28;20090;-73
2021/10/11 01:34:04;;;;;;;106.55;27.55;;;;;;;10.95;53.66;96152.69;4971642;28;20440;-72
2021/10/11 01:36:31;;;;;;;54.75;23.58;;;;;;;11.05;53.34;96157.13;4964411;28;20070;-73
2021/10/11 01:39:00;;;;;;;44.83;21.08;;;;;;;10.93;52.82;96134.34;4975157;28;20077;-73
2021/10/11 01:41:25;;;;;;;79.07;23.92;;;;;;;11.07;52.84;96147.00;4993737;28;20531;-74
2021/10/11 01:43:51;;;;;;;48.70;21.95;;;;;;;11.17;52.36;96152.22;4991506;28;20074;-73
2021/10/11 01:46:17;;;;;;;57.65;23.98;;;;;;;11.27;52.19;96156.66;4989082;28;20386;-72
2021/10/11 01:48:43;;;;;;;71.97;23.73;;;;;;;11.29;52.06;96146.50;4971568;28;20069;-73
2021/10/11 01:51:08;;;;;;;67.63;23.88;;;;;;;11.32;52.55;96140.63;4971703;28;20070;-72
2021/10/11 01:53:34;;;;;;;46.05;22.73;;;;;;;11.32;52.38;96136.09;4971825;28;20029;-72
2021/10/11 01:55:59;;;;;;;83.63;23.17;;;;;;;11.30;52.40;96135.56;4993465;28;20068;-74
2021/10/11 01:58:25;;;;;;;104.82;25.15;;;;;;;11.27;51.98;96124.69;4991419;28;20054;-73
2021/10/11 02:00:52;;;;;;;63.60;24.48;;;;;;;11.36;52.32;96126.47;4991188;28;20096;-73
2021/10/11 02:03:17;;;;;;;74.00;23.15;;;;;;;11.41;52.66;96122.91;4972808;28;20155;-73
2021/10/11 02:05:43;;;;;;;111.35;25.95;;;;;;;11.37;52.67;96114.72;4973048;28;20047;-73
2021/10/11 02:08:09;;;;;;;118.35;26.48;;;;;;;11.36;52.15;96123.78;4975561;28;20542;-73
2021/10/11 02:10:34;;;;;;;46.45;22.75;;;;;;;11.39;52.16;96128.53;4971173;28;20046;-73
2021/10/11 02:13:00;;;;;;;51.75;22.20;;;;;;;11.42;52.05;96135.97;4971383;28;20420;-73
2021/10/11 02:15:27;;;;;;;45.72;21.90;;;;;;;11.40;52.10;96126.66;4963541;28;20514;-73
2021/10/11 02:17:52;;;;;;;47.22;22.85;;;;;;;11.36;52.56;96126.47;4954215;28;20023;-73
2021/10/11 02:20:18;;;;;;;53.08;23.88;;;;;;;11.41;52.07;96137.06;4972828;28;20619;-73
2021/10/11 02:22:43;;;;;;;76.43;22.08;;;;;;;11.47;52.46;96144.97;4971511;28;20035;-73
2021/10/11 02:25:10;;;;;;;52.45;22.10;;;;;;;11.37;52.39;96133.38;4971557;28;20039;-73
2021/10/11 02:27:36;;;;;;;40.70;23.00;;;;;;;11.37;51.91;96137.91;4971474;28;20035;-73
2021/10/11 02:30:03;;;;;;;57.22;22.73;;;;;;;11.45;51.68;96145.25;4969643;28;20396;-71
2021/10/11 02:32:29;;;;;;;41.67;21.35;;;;;;;11.35;51.56;96129.38;4972458;28;20065;-73
2021/10/11 02:34:54;;;;;;;37.67;20.45;;;;;;;11.42;52.24;96140.50;4966494;28;20031;-73
2021/10/11 02:37:19;;;;;;;28.58;18.77;;;;;;;11.44;52.28;96138.34;4970700;28;20412;-73
2021/10/11 02:39:45;;;;;;;153.18;28.13;;;;;;;11.50;51.48;96137.19;4990300;28;20407;-74
2021/10/11 02:42:10;;;;;;;36.30;19.25;;;;;;;11.52;51.72;96139.59;4990793;28;20030;-73
2021/10/11 02:44:36;;;;;;;37.78;20.52;;;;;;;11.39;51.71;96123.22;4990343;28;20053;-73
2021/10/11 02:47:01;;;;;;;34.20;20.20;;;;;;;11.40;51.99;96134.66;4984927;28;20030;-73
2021/10/11 02:49:26;;;;;;;29.00;19.85;;;;;;;11.42;51.72;96145.84;4969218;28;20427;-73
2021/10/11 02:51:52;;;;;;;45.42;20.48;;;;;;;11.34;51.54;96133.91;4969522;28;20504;-73
2021/10/11 02:54:17;;;;;;;34.15;19.75;;;;;;;11.33;51.61;96142.19;4963508;28;20046;-73
2021/10/11 02:56:44;;;;;;;30.65;18.70;;;;;;;11.18;51.80;96124.53;4967515;28;20599;-72
2021/10/11 02:59:10;;;;;;;52.08;22.25;;;;;;;11.11;51.52;96124.88;4972344;28;20053;-73
2021/10/11 03:01:35;;;;;;;42.88;20.33;;;;;;;11.10;51.83;96135.78;4970348;28;20485;-73
2021/10/11 03:04:00;;;;;;;45.08;20.63;;;;;;;10.98;51.93;96138.84;4970375;28;20437;-73
2021/10/11 03:06:26;;;;;;;37.00;19.55;;;;;;;10.94;52.22;96133.28;4970640;28;20035;-73
2021/10/11 03:08:51;;;;;;;36.35;20.95;;;;;;;10.95;52.25;96136.72;4970114;28;20023;-73
2021/10/11 03:11:16;;;;;;;37.38;20.15;;;;;;;10.93;51.91;96134.34;4972596;28;20430;-73
2021/10/11 03:13:42;;;;;;;39.83;19.95;;;;;;;11.02;52.09;96147.06;4970440;28;20097;-73
2021/10/11 03:16:07;;;;;;;38.88;19.48;;;;;;;10.95;52.51;96142.03;4969215;28;20130;-74
2021/10/11 03:18:33;;;;;;;32.47;20.92;;;;;;;10.95;51.78;96144.72;4968426;28;20043;-73
2021/10/11 03:20:58;;;;;;;28.15;18.73;;;;;;;10.95;52.33;96142.03;4973408;28;20030;-73
2021/10/11 03:23:24;;;;;;;24.98;18.02;;;;;;;10.98;52.46;96154.00;4983278;28;20029;-74
2021/10/11 03:25:50;;;;;;;29.80;19.08;;;;;;;10.84;52.47;96130.72;4989956;28;20441;-74
2021/10/11 03:28:15;;;;;;;26.88;17.35;;;;;;;10.97;52.18;96147.09;5004920;28;20045;-73
2021/10/11 03:30:40;;;;;;;31.15;18.70;;;;;;;10.98;51.88;96157.47;4989529;28;20630;-73
2021/10/11 03:33:06;;;;;;;38.92;21.25;;;;;;;10.83;51.97;96145.09;4976108;28;20037;-73
2021/10/11 03:35:31;;;;;;;56.35;22.10;;;;;;;10.34;52.72;96158.56;4971072;28;20393;-73
2021/10/11 03:37:57;;;;;;;76.60;22.52;;;;;;;10.22;53.88;96152.75;4974521;28;20046;-73
2021/10/11 03:40:22;;;;;;;42.97;21.38;;;;;;;10.32;53.82;96161.47;4969181;28;20121;-73
2021/10/11 03:42:47;;;;;;;73.05;26.23;;;;;;;10.45;53.24;96154.75;4965517;28;20050;-74
2021/10/11 03:45:13;;;;;;;36.58;22.75;;;;;;;10.50;53.57;96156.56;4955982;28;20073;-73
2021/10/11 03:47:39;;;;;;;30.13;20.27;;;;;;;10.59;52.85;96154.88;4969031;28;20049;-74
2021/10/11 03:50:07;;;;;;;27.65;19.30;;;;;;;10.71;53.02;96157.19;4950775;28;20082;-73
2021/10/11 03:52:32;;;;;;;28.23;20.00;;;;;;;10.75;52.35;96152.88;4966363;28;20042;-73
2021/10/11 03:54:58;;;;;;;41.67;21.33;;;;;;;10.84;52.58;96152.00;4968359;28;20027;-74
2021/10/11 03:57:24;;;;;;;22.05;16.98;;;;;;;10.82;52.75;96138.19;4976316;28;20088;-73
2021/10/11 03:59:49;;;;;;;24.33;17.33;;;;;;;10.82;52.14;96130.22;4989077;28;20077;-73
2021/10/11 04:02:15;;;;;;;22.27;18.33;;;;;;;10.86;51.99;96135.78;4985433;28;20029;-73
2021/10/11 04:04:40;;;;;;;30.00;16.70;;;;;;;10.86;51.68;96128.56;4968049;28;20035;-73
2021/10/11 04:07:11;;;;;;;42.15;18.60;;;;;;;10.94;51.57;96141.25;4968362;28;20038;-73
2021/10/11 04:09:38;;;;;;;28.23;17.02;;;;;;;10.97;51.06;96150.56;4969188;28;20050;-74
2021/10/11 04:12:16;;;;;;;26.70;19.30;;;;;;;10.90;51.09;96150.91;4973767;28;20036;-73
2021/10/11 04:14:41;;;;;;;32.28;16.83;;;;;;;10.92;52.17;96150.59;4988834;28;20030;-73
2021/10/11 04:17:07;;;;;;;20.83;16.20;;;;;;;10.88;51.98;96157.56;4986902;28;20559;-73
2021/10/11 04:19:32;;;;;;;38.80;17.20;;;;;;;10.86;51.46;96171.16;4968819;28;20042;-72
2021/10/11 04:21:57;;;;;;;24.45;17.48;;;;;;;10.78;51.56;96173.63;4967810;28;20039;-73
2021/10/11 04:24:23;;;;;;;17.60;15.65;;;;;;;10.61;51.81;96150.88;4969017;28;20041;-73
2021/10/11 04:26:48;;;;;;;24.13;16.25;;;;;;;10.62;51.66;96171.09;4969668;28;20118;-73
2021/10/11 04:29:13;;;;;;;20.08;16.77;;;;;;;10.52;51.66;96159.75;4970995;28;20031;-73
2021/10/11 04:31:39;;;;;;;27.10;17.77;;;;;;;10.44;51.81;96165.63;4952719;28;20489;-73
2021/10/11 04:34:04;;;;;;;19.52;16.63;;;;;;;10.36;51.72;96172.34;4961419;28;20030;-73
2021/10/11 04:36:29;;;;;;;28.85;17.58;;;;;;;10.30;52.02;96171.59;4969066;28;20066;-73
2021/10/11 04:38:55;;;;;;;27.52;18.10;;;;;;;10.35;51.77;96186.72;4968880;28;20093;-72
2021/10/11 04:41:20;;;;;;;20.63;16.70;;;;;;;10.31;52.14;96180.38;4971123;28;20374;-74
2021/10/11 04:43:46;;;;;;;22.02;16.75;;;;;;;10.23;51.94;96168.41;4969096;28;20039;-73
2021/10/11 04:46:11;;;;;;;23.42;17.00;;;;;;;10.14;52.71;96165.56;4969502;28;20086;-73
2021/10/11 04:48:36;;;;;;;25.40;17.35;;;;;;;10.01;52.32;96162.72;4960019;28;20047;-73
2021/10/11 04:51:02;;;;;;;23.08;17.50;;;;;;;10.14;52.37;96180.72;4956149;28;20039;-73
2021/10/11 04:53:27;;;;;;;26.38;18.52;;;;;;;10.08;52.31;96171.16;4970792;28;20027;-73
2021/10/11 04:55:53;;;;;;;28.23;18.38;;;;;;;10.12;53.02;96182.84;4967817;28;20553;-72
2021/10/11 04:58:18;;;;;;;21.65;17.33;;;;;;;10.20;52.63;96176.16;4969092;28;20122;-73
2021/10/11 05:00:43;;;;;;;47.88;21.40;;;;;;;10.13;53.08;96171.13;4968558;28;20034;-74
2021/10/11 05:03:09;;;;;;;21.85;16.60;;;;;;;10.15;52.64;96164.47;4968393;28;20046;-76
2021/10/11 05:05:34;;;;;;;17.58;15.25;;;;;;;10.26;52.62;96162.56;4968957;28;20539;-73
2021/10/11 05:08:01;;;;;;;22.45;18.02;;;;;;;10.30;52.38;96171.59;4971311;28;20085;-75
2021/10/11 05:10:26;;;;;;;21.20;16.02;;;;;;;10.35;52.06;96162.78;4967123;28;20648;-74
2021/10/11 05:12:52;;;;;;;21.63;16.85;;;;;;;10.27;52.35;96147.41;4968714;28;20113;-73
2021/10/11 05:15:17;;;;;;;24.05;16.15;;;;;;;10.32;52.39;96156.16;4968991;28;20038;-73
2021/10/11 05:17:43;;;;;;;21.75;16.55;;;;;;;10.35;52.16;96163.59;4968242;28;20094;-73
2021/10/11 05:20:09;;;;;;;20.45;15.88;;;;;;;10.29;51.61;96161.25;4970429;28;20237;-75
2021/10/11 05:22:35;;;;;;;19.90;14.98;;;;;;;10.29;52.03;96169.22;4975942;28;20043;-73
2021/10/11 05:25:00;;;;;;;21.88;16.25;;;;;;;10.21;51.53;96157.25;5003364;28;20073;-74
2021/10/11 05:27:26;;;;;;;19.60;15.68;;;;;;;10.15;51.95;96155.72;5003527;28;20088;-74
2021/10/11 05:29:51;;;;;;;20.75;16.25;;;;;;;10.02;52.34;96148.34;4984460;28;20057;-80
2021/10/11 05:32:17;;;;;;;20.85;16.08;;;;;;;10.05;52.70;96155.78;4987566;28;20030;-72
2021/10/11 05:34:43;;;;;;;57.25;23.83;;;;;;;10.09;52.21;96178.09;4968484;28;20035;-70
2021/10/11 05:37:08;;;;;;;21.50;16.10;;;;;;;10.04;52.21;96167.50;4968583;28;20101;-69
2021/10/11 05:39:33;;;;;;;21.95;16.55;;;;;;;9.70;52.50;96146.94;4967936;28;20515;-71
2021/10/11 05:41:59;;;;;;;26.08;17.10;;;;;;;9.87;52.45;96173.94;4967651;28;20031;-78
2021/10/11 05:44:24;;;;;;;28.05;17.92;;;;;;;9.83;52.51;96175.56;4971559;28;20023;-69
2021/10/11 05:46:50;;;;;;;23.83;16.55;;;;;;;9.87;52.77;96186.41;4969047;28;20512;-70
2021/10/11 05:49:15;;;;;;;22.17;16.70;;;;;;;9.84;52.82;96192.31;4967776;28;20035;-70
2021/10/11 05:51:41;;;;;;;20.17;16.55;;;;;;;9.80;52.74;96186.72;4964392;28;20042;-71
2021/10/11 05:54:06;;;;;;;21.63;16.67;;;;;;;9.86;53.29;96195.47;4968398;28;20039;-70
2021/10/11 05:56:32;;;;;;;30.15;19.13;;;;;;;9.77;52.67;96189.13;4967769;28;20039;-71
2021/10/11 05:58:57;;;;;;;23.73;16.38;;;;;;;9.75;52.82;96193.94;4968415;28;20101;-71
2021/10/11 06:01:22;;;;;;;28.00;18.35;;;;;;;9.79;53.25;96182.50;4969053;28;20453;-69
2021/10/11 06:03:48;;;;;;;18.77;16.23;;;;;;;9.84;53.09;96198.41;4971026;28;20047;-75
2021/10/11 06:06:13;;;;;;;16.63;14.82;;;;;;;9.75;52.93;96180.66;4971476;28;20031;-71
2021/10/11 06:08:38;;;;;;;15.98;14.27;;;;;;;9.92;53.65;96194.38;4972227;28;20086;-75
2021/10/11 06:11:04;;;;;;;15.25;13.75;;;;;;;9.85;53.36;96181.38;4975127;28;20106;-72
2021/10/11 06:13:29;;;;;;;16.13;14.35;;;;;;;9.98;53.03;96179.19;4971348;28;20097;-76
2021/10/11 06:15:55;;;;;;;14.35;12.85;;;;;;;10.02;52.65;96186.34;4962249;28;20485;-71
2021/10/11 06:18:20;;;;;;;14.13;12.82;;;;;;;10.09;52.70;96183.41;4957447;28;20508;-77
2021/10/11 06:20:45;;;;;;;13.95;12.57;;;;;;;10.13;52.66;96169.28;4971581;28;20027;-67
2021/10/11 06:23:13;;;;;;;14.18;12.63;;;;;;;10.14;53.24;96170.09;4973409;28;20022;-72
2021/10/11 06:25:40;;;;;;;18.17;13.27;;;;;;;10.23;52.98;96165.75;4987374;28;20046;-73
2021/10/11 06:28:05;;;;;;;12.73;11.45;;;;;;;10.22;52.59;96150.06;4991240;28;20034;-71
2021/10/11 06:30:31;;;;;;;14.85;11.95;;;;;;;10.26;53.05;96151.16;4991245;28;20084;-79
2021/10/11 06:33:02;;;;;;;14.32;12.82;;;;;;;10.22;52.86;96142.09;4997429;28;20051;-76
2021/10/11 06:35:27;;;;;;;13.70;12.40;;;;;;;10.33;52.56;96155.06;4973574;28;20023;-68
2021/10/11 06:37:55;;;;;;;18.70;15.98;;;;;;;10.28;53.20;96144.47;4969854;28;20081;-66
2021/10/11 06:40:20;;;;;;;14.48;12.18;;;;;;;10.38;52.83;96163.00;4985240;28;20058;-80
2021/10/11 06:42:45;;;;;;;12.95;11.63;;;;;;;10.45;53.15;96153.94;4990624;28;20034;-73
2021/10/11 06:45:11;;;;;;;13.07;11.88;;;;;;;10.53;52.82;96159.44;4990687;28;20501;-73
2021/10/11 06:47:36;;;;;;;15.25;12.48;;;;;;;10.62;53.15;96159.66;4988162;28;20029;-71
2021/10/11 06:50:01;;;;;;;13.85;12.32;;;;;;;10.60;52.78;96156.50;4975005;28;20026;-69
2021/10/11 06:52:27;;;;;;;12.05;10.85;;;;;;;10.80;53.17;96161.63;4955759;28;20457;-66
2021/10/11 06:54:52;;;;;;;12.32;11.23;;;;;;;10.80;53.34;96152.84;4962144;28;20170;-67
2021/10/11 06:57:17;;;;;;;14.13;12.15;;;;;;;10.97;52.19;96161.22;4969688;28;20039;-69
2021/10/11 06:59:43;;;;;;;15.15;11.77;;;;;;;11.06;52.68;96162.19;4970600;28;20027;-68
2021/10/11 07:02:08;;;;;;;12.40;10.80;;;;;;;11.15;53.32;96155.16;4972804;28;20035;-68
2021/10/11 07:04:34;;;;;;;12.48;11.27;;;;;;;11.26;52.79;96144.41;4970191;28;20035;-70
2021/10/11 07:07:00;;;;;;;11.05;9.95;;;;;;;11.40;52.79;96145.31;4968957;28;20042;-67
2021/10/11 07:09:25;;;;;;;12.75;11.52;;;;;;;11.48;52.47;96142.03;4968931;28;20049;-70
2021/10/11 07:11:50;;;;;;;11.23;10.13;;;;;;;11.47;52.90;96134.31;4967171;28;20023;-70
2021/10/11 07:14:18;;;;;;;17.60;10.52;;;;;;;11.55;52.24;96149.66;4951435;28;20376;-71
2021/10/11 07:16:45;;;;;;;9.95;9.05;;;;;;;11.62;51.95;96145.59;4969012;28;20390;-75
2021/10/11 07:19:11;;;;;;;12.90;10.70;;;;;;;11.84;51.83;96152.28;4955982;28;20158;-69
2021/10/11 07:21:37;;;;;;;11.20;10.15;;;;;;;11.80;51.67;96152.00;4959459;28;20054;-70
2021/10/11 07:24:03;;;;;;;10.15;9.25;;;;;;;11.90;51.59;96162.56;4970123;28;20035;-70
2021/10/11 07:26:28;;;;;;;11.00;9.90;;;;;;;11.92;52.06;96154.28;4972286;28;20039;-69
2021/10/11 07:28:54;;;;;;;11.00;9.90;;;;;;;12.04;51.89;96168.00;4969489;28;20043;-67
2021/10/11 07:31:19;;;;;;;10.88;9.82;;;;;;;12.16;51.62;96179.03;4970198;28;20066;-69
2021/10/11 07:33:44;;;;;;;9.80;8.90;;;;;;;12.19;51.71;96165.13;4969360;28;20437;-68
2021/10/11 07:36:10;;;;;;;10.45;9.45;;;;;;;12.29;51.55;96168.72;4969803;28;20142;-68
2021/10/11 07:38:35;;;;;;;11.52;10.32;;;;;;;12.41;51.40;96167.19;4969965;28;20050;-67
2021/10/11 07:41:01;;;;;;;10.63;9.52;;;;;;;12.44;51.24;96161.28;4991021;28;20050;-67
2021/10/11 07:43:26;;;;;;;10.18;9.18;;;;;;;12.53;51.27;96161.41;4988999;28;20708;-67
2021/10/11 07:45:51;;;;;;;10.90;9.90;;;;;;;12.66;50.93;96167.88;4989479;28;20077;-67
2021/10/11 07:48:17;;;;;;;11.18;10.02;;;;;;;12.74;51.17;96165.34;4983280;28;20497;-70
2021/10/11 07:50:42;;;;;;;11.20;10.10;;;;;;;12.74;51.14;96164.53;4969044;28;20015;-66
2021/10/11 07:53:08;;;;;;;13.00;10.48;;;;;;;12.83;50.98;96162.00;4971406;28;20033;-68
2021/10/11 07:55:33;;;;;;;11.23;10.02;;;;;;;12.90;50.90;96163.22;4985580;28;20535;-68
2021/10/11 07:57:58;;;;;;;13.73;11.68;;;;;;;13.02;51.02;96160.88;5004087;28;20117;-67
2021/10/11 08:00:24;;;;;;;11.15;10.13;;;;;;;13.16;50.96;96173.47;5003776;28;20057;-68
2021/10/11 08:02:50;;;;;;;11.13;10.02;;;;;;;12.18;53.45;96178.72;4985494;28;20073;-67
2021/10/11 08:05:16;;;;;;;13.40;10.68;;;;;;;12.65;52.23;96167.09;4970178;28;20660;-67
2021/10/11 08:07:42;;;;;;;13.38;12.13;;;;;;;13.08;51.70;96171.47;4969747;28;20043;-68
2021/10/11 08:10:10;;;;;;;13.45;12.00;;;;;;;13.35;51.39;96168.06;4969071;28;20065;-67
2021/10/11 08:12:35;;;;;;;15.40;11.95;;;;;;;11.89;54.32;96163.66;4968933;28;20039;-68
2021/10/11 08:15:01;;;;;;;16.83;11.60;;;;;;;11.68;55.15;96171.09;4964519;28;20142;-68
2021/10/11 08:17:26;;;;;;;13.20;11.85;;;;;;;11.44;55.79;96162.31;4949914;29;20035;-67
2021/10/11 08:19:51;;;;;;;13.93;11.73;;;;;;;11.15;56.38;96167.69;4966435;28;20035;-66
2021/10/11 08:22:19;;;;;;;15.40;12.90;;;;;;;11.94;55.28;96154.81;4953199;28;20715;-71
2021/10/11 08:24:46;;;;;;;14.48;12.98;;;;;;;12.62;52.84;96146.31;4958466;28;20105;-68
2021/10/11 08:27:16;;;;;;;14.88;12.50;;;;;;;13.18;52.20;96160.59;4968268;28;20074;-69
2021/10/11 08:29:43;;;;;;;16.85;12.88;;;;;;;12.53;52.78;96158.72;4967816;28;20396;-68
2021/10/11 08:32:08;;;;;;;14.13;12.70;;;;;;;12.46;53.53;96153.00;4970381;28;20027;-67
2021/10/11 08:34:33;;;;;;;14.55;12.00;;;;;;;11.78;55.92;96148.84;4967279;28;20047;-68
2021/10/11 08:36:59;;;;;;;15.23;13.60;;;;;;;11.88;55.29;96154.09;4967885;28;20066;-67
2021/10/11 08:39:24;;;;;;;17.63;12.95;;;;;;;11.92;55.91;96155.06;4973852;28;20042;-68
2021/10/11 08:41:50;;;;;;;13.52;12.18;;;;;;;12.33;54.53;96159.03;4987589;28;20437;-67
2021/10/11 08:44:15;;;;;;;14.48;12.48;;;;;;;12.03;54.68;96171.75;4989423;28;20026;-67
2021/10/11 08:46:44;;;;;;;14.23;12.73;;;;;;;12.68;53.65;96152.38;4987602;28;20074;-67
2021/10/11 08:49:11;;;;;;;14.70;13.20;;;;;;;12.17;54.56;96140.59;4988744;28;20070;-68
2021/10/11 08:51:37;;;;;;;15.52;12.98;;;;;;;13.39;51.76;96143.13;4967574;28;20049;-68
2021/10/11 08:54:02;;;;;;;16.50;14.52;;;;;;;13.96;50.86;96148.91;4966489;28;20130;-68
2021/10/11 08:56:28;;;;;;;16.58;13.70;;;;;;;14.29;50.34;96151.41;4970112;28;20381;-67
2021/10/11 08:58:53;;;;;;;14.15;12.73;;;;;;;12.34;54.64;96145.44;4967463;28;20047;-68
2021/10/11 09:01:23;;;;;;;14.70;13.20;;;;;;;12.78;53.76;96151.41;4968210;28;20090;-67
2021/10/11 09:03:48;;;;;;;17.08;12.98;;;;;;;12.80;53.76;96150.03;4966807;28;20069;-67
2021/10/11 09:06:14;;;;;;;14.70;13.10;;;;;;;12.93;52.03;96154.59;4967498;28;20122;-66
2021/10/11 09:08:41;;;;;;;17.88;12.63;;;;;;;12.20;53.67;96163.25;4967078;28;20673;-66
2021/10/11 09:11:08;;;;;;;13.95;12.48;;;;;;;12.16;55.42;96176.34;4968336;28;20027;-67
2021/10/11 09:13:51;;;;;;;14.55;11.50;;;;;;;12.21;56.12;96181.63;4914162;28;1107765;-67
2021/10/11 09:16:28;;;;;;;19.35;12.75;;;;;;;12.50;53.02;96162.00;4963167;28;20030;-71
2021/10/11 09:18:57;;;;;;;13.90;12.40;;;;;;;13.19;51.50;96157.63;4967494;28;20082;-70
2021/10/11 09:21:33;;;;;;;17.10;13.05;;;;;;;13.49;51.66;96171.53;4966504;28;20090;-67
2021/10/11 09:24:09;;;;;;;15.63;12.65;;;;;;;13.51;50.95;96180.84;4970328;28;20088;-67
2021/10/11 09:26:43;;;;;;;16.30;14.30;;;;;;;12.93;51.43;96175.19;4987183;28;20037;-65
2021/10/11 09:29:09;;;;;;;18.83;14.43;;;;;;;12.82;50.57;96171.88;4989236;28;20681;-67
2021/10/11 09:31:41;;;;;;;22.48;14.05;;;;;;;14.37;48.51;96172.09;4986465;28;20078;-67
2021/10/11 09:34:08;;;;;;;16.52;14.27;;;;;;;13.64;47.70;96159.75;4978775;28;20046;-67
2021/10/11 09:36:33;;;;;;;16.98;13.63;;;;;;;13.86;48.12;96161.69;4968173;28;20098;-67
2021/10/11 09:38:59;;;;;;;13.90;12.50;;;;;;;13.51;48.19;96159.47;4970785;28;20630;-67
2021/10/11 09:41:25;;;;;;;20.65;12.38;;;;;;;13.25;48.86;96164.47;4973804;28;20026;-67
2021/10/11 09:43:51;;;;;;;13.35;12.02;;;;;;;13.18;48.67;96171.28;4988807;28;20050;-67
2021/10/11 09:46:18;;;;;;;16.80;13.15;;;;;;;13.30;48.67;96165.47;4991302;28;20464;-67
2021/10/11 09:48:49;;;;;;;15.02;12.68;;;;;;;13.27;48.82;96165.00;4985657;28;20576;-67
2021/10/11 09:51:16;;;;;;;19.83;13.40;;;;;;;13.99;48.24;96175.06;4964922;28;20074;-69
2021/10/11 09:53:43;;;;;;;19.55;12.40;;;;;;;14.06;46.39;96177.31;4953014;28;20027;-67
2021/10/11 09:56:08;;;;;;;15.13;12.93;;;;;;;13.78;47.39;96165.88;4976414;28;20031;-66
2021/10/11 09:58:35;;;;;;;14.70;13.30;;;;;;;14.04;46.63;96164.25;4971518;28;20097;-67
2021/10/11 10:01:00;;;;;;;12.95;11.65;;;;;;;14.28;45.21;96171.25;4970019;28;20038;-67
2021/10/11 10:03:26;;;;;;;16.95;12.40;;;;;;;14.66;43.53;96158.31;4970873;28;20039;-67
2021/10/11 10:05:55;;;;;;;15.52;12.02;;;;;;;14.78;43.54;96165.81;4971546;28;20041;-67
2021/10/11 10:08:22;;;;;;;14.93;10.85;;;;;;;13.95;44.96;96165.25;4979160;28;20090;-67
2021/10/11 10:10:53;;;;;;;13.18;11.82;;;;;;;14.74;44.20;96154.13;4969844;28;20045;-67
2021/10/11 10:13:21;;;;;;;15.90;12.52;;;;;;;15.33;42.83;96155.53;4985293;28;20412;-67
2021/10/11 10:15:50;;;;;;;14.00;10.77;;;;;;;14.44;44.39;96153.75;4991175;28;20061;-68
2021/10/11 10:18:18;;;;;;;14.85;11.43;;;;;;;14.27;44.50;96146.34;4991340;28;20037;-67
2021/10/11 10:20:57;;;;;;;13.65;11.55;;;;;;;14.93;44.29;96152.03;4968969;28;20515;-68
2021/10/11 10:23:28;;;;;;;16.00;11.15;;;;;;;14.85;43.40;96146.66;4953454;28;20426;-67
2021/10/11 10:25:55;;;;;;;11.77;10.02;;;;;;;15.40;41.97;96124.81;4973384;28;20497;-68
2021/10/11 10:28:22;;;;;;;15.70;10.65;;;;;;;15.94;40.42;96125.47;4971104;28;20050;-68
2021/10/11 10:30:57;;;;;;;15.63;11.13;;;;;;;15.15;42.13;96127.09;4970362;28;20061;-68
2021/10/11 10:33:33;;;;;;;13.63;10.82;;;;;;;16.11;40.91;96118.22;4971208;28;20067;-74
2021/10/11 10:35:59;;;;;;;12.10;10.73;;;;;;;15.33;42.23;96134.09;4971454;28;20038;-71
2021/10/11 10:38:25;;;;;;;14.77;10.65;;;;;;;15.33;40.79;96117.22;4973226;28;20073;-73
2021/10/11 10:40:50;;;;;;;14.02;8.70;;;;;;;15.97;39.60;96128.31;4989288;28;20471;-71
2021/10/11 10:43:18;;;;;;;13.02;9.38;;;;;;;14.61;42.48;96114.81;4990788;28;20038;-71
2021/10/11 10:45:44;;;;;;;12.40;9.90;;;;;;;15.26;41.46;96116.91;4990539;28;20077;-71
2021/10/11 10:48:26;;;;;;;15.10;9.82;;;;;;;15.42;41.53;96118.06;4990067;28;20036;-70
2021/10/11 10:50:56;;;;;;;13.52;10.20;;;;;;;15.51;41.06;96118.88;4969914;28;20031;-71
2021/10/11 10:53:23;;;;;;;11.38;10.25;;;;;;;15.23;41.40;96118.28;4972339;28;20038;-70
2021/10/11 10:55:49;;;;;;;14.63;9.68;;;;;;;15.95;41.02;96114.41;4971078;28;20031;-70
2021/10/11 10:58:16;;;;;;;11.77;9.88;;;;;;;16.18;39.63;96096.28;4984291;28;20046;-71
2021/10/11 11:00:43;;;;;;;11.07;9.18;;;;;;;14.94;41.37;96110.75;4989547;28;20676;-71
2021/10/11 11:03:13;;;;;;;10.52;8.80;;;;;;;15.43;41.03;96111.59;4989796;28;20037;-71
2021/10/11 11:05:41;;;;;;;10.00;9.07;;;;;;;16.55;39.01;96108.25;4972312;28;20019;-71
2021/10/11 11:08:08;;;;;;;10.65;8.80;;;;;;;15.97;40.04;96106.03;4972289;28;20019;-71
2021/10/11 11:10:37;;;;;;;8.65;7.72;;;;;;;15.72;38.45;96096.88;4969753;28;20100;-71
2021/10/11 11:13:14;;;;;;;11.23;9.20;;;;;;;14.97;41.41;96102.09;4970154;28;20051;-71
2021/10/11 11:15:45;;;;;;;10.20;8.90;;;;;;;15.49;41.13;96096.16;4977957;28;20500;-71